Campanya meteocatpedra

Dades EMA Cabanes

?
?
Resum diari
Dades diàries de l'estació meteorològica
Temperatura mitjana 10.8 °C
Temperatura màxima 16.4 °C 13:59 TU
Temperatura mínima 4.8 °C 22:58 TU
Humitat relativa mitjana 79%
Precipitació acumulada 12.2 mm
Ratxa màxima del vent (2 m) 44.3 km/h - 72º 1:46 TU
Irradiació solar global 12.8 MJ/m2

El tram horari està expressat en Temps Universal (TU). Cal sumar una hora en horari d'hivern i dues en horari d'estiu per passar a l'hora oficial.

Cabanes

Metadades estació meteorol´gica
Municipi Cabanes
Comarca Alt Empordà
Altitud 31 m
Data alta 11.06.1991
Estat actual Operativa
Dades de període
Període
TU
TM
°C
TX
°C
TN
°C
HRM
%
PPT
mm
VVM (2 m)
km/h
DVM (2 m)
graus
VVX (2 m)
km/h
RS
W/m2
00:00 - 00:30 12.7 12.8 12.7 89 0.0 8.6 53 19.8 0
00:30 - 01:00 12.8 12.9 12.7 90 0.0 10.1 57 27.4 0
01:00 - 01:30 13.1 13.4 12.8 90 0.0 11.9 58 31.0 0
01:30 - 02:00 12.2 13.4 10.2 94 6.2 11.9 85 44.3 0
02:00 - 02:30 10.4 10.9 10.1 100 1.4 4.7 99 20.2 0
02:30 - 03:00 11.0 11.0 10.9 100 2.0 5.4 69 13.7 0
03:00 - 03:30 10.6 10.9 10.4 100 1.7 3.6 47 12.6 0
03:30 - 04:00 10.5 10.7 10.4 100 0.1 4.7 45 13.0 0
04:00 - 04:30 10.8 11.0 10.7 100 0.0 5.4 54 14.4 0
04:30 - 05:00 11.1 11.3 10.9 100 0.0 4.3 75 11.9 0
05:00 - 05:30 10.4 11.0 9.8 99 0.0 4.3 113 15.1 0
05:30 - 06:00 9.2 9.7 8.8 98 0.0 3.2 125 14.0 4
06:00 - 06:30 8.7 8.8 8.6 98 0.0 1.8 108 9.4 23
06:30 - 07:00 8.5 8.8 8.2 94 0.0 3.6 163 17.6 22
07:00 - 07:30 7.9 8.2 7.5 92 0.0 5.8 186 18.4 29
07:30 - 08:00 7.1 7.5 6.9 92 0.6 12.2 195 26.6 52
08:00 - 08:30 7.4 7.9 7.1 90 0.2 13.3 199 28.4 128
08:30 - 09:00 8.3 8.7 7.9 82 0.0 13.3 202 27.7 200
09:00 - 09:30 9.8 10.8 8.8 77 0.0 14.8 205 29.2 504
09:30 - 10:00 11.7 12.2 10.8 73 0.0 15.5 209 27.4 646
10:00 - 10:30 11.7 12.2 11.2 68 0.0 16.6 206 35.6 328
10:30 - 11:00 11.6 11.9 11.1 66 0.0 18.4 216 41.0 328
11:00 - 11:30 12.6 13.6 11.9 64 0.0 14.4 214 30.6 514
11:30 - 12:00 14.2 14.5 13.7 61 0.0 12.6 212 25.9 654
12:00 - 12:30 14.9 15.5 14.3 60 0.0 9.7 199 27.4 557
12:30 - 13:00 14.5 15.2 14.0 61 0.0 10.8 208 22.0 485
13:00 - 13:30 14.8 15.9 14.3 59 0.0 10.8 210 26.6 320
13:30 - 14:00 15.2 16.4 14.3 56 0.0 12.2 204 29.9 508
14:00 - 14:30 15.3 16.4 14.6 54 0.0 10.4 194 26.3 297
14:30 - 15:00 15.8 16.3 14.5 52 0.0 10.8 191 23.8 389
15:00 - 15:30 14.3 14.5 13.8 58 0.0 11.2 201 27.0 91
15:30 - 16:00 13.3 13.7 13.1 58 0.0 15.5 222 25.6 265
16:00 - 16:30 12.8 13.7 12.4 61 0.0 16.2 232 32.0 376
16:30 - 17:00 12.4 13.0 11.9 60 0.0 13.0 222 22.3 235
17:00 - 17:30 11.7 11.9 11.3 61 0.0 11.2 213 23.4 123
17:30 - 18:00 10.9 11.4 10.2 65 0.0 2.2 135 9.4 39
18:00 - 18:30 9.7 10.2 9.3 71 0.0 4.7 164 15.1 2
18:30 - 19:00 9.7 10.1 9.1 70 0.0 5.8 205 14.4 0
19:00 - 19:30 8.5 9.1 7.7 76 0.0 0.4 222 4.7 0
19:30 - 20:00 6.8 7.7 6.1 86 0.0 1.8 217 5.4 0
20:00 - 20:30 6.1 6.7 5.6 89 0.0 3.2 210 7.6 0
20:30 - 21:00 6.0 6.6 5.5 88 0.0 3.2 217 6.5 0
21:00 - 21:30 7.2 7.8 6.2 79 0.0 5.4 197 9.4 0
21:30 - 22:00 7.9 8.2 7.6 74 0.0 6.8 201 11.2 0
22:00 - 22:30 7.8 8.4 7.3 76 0.0 3.6 203 12.2 0
22:30 - 23:00 6.4 8.3 4.8 83 0.0 1.8 329 6.5 0
23:00 - 23:30 (s/d) (s/d) (s/d) (s/d) (s/d) (s/d) (s/d) (s/d) (s/d)

Les dades en taronja només han passat un control de qualitat automàtic. Resta pendent la seva validació definitiva.